sensor_id;sensor_type;location;lat;lon;timestamp;P1;durP1;ratioP1;P2;durP2;ratioP2
17953;SDS011;9102;53.548;9.926;2023-04-24T00:01:01;15.63;;;10.05;;
17953;SDS011;9102;53.548;9.926;2023-04-24T00:03:28;12.38;;;9.50;;
17953;SDS011;9102;53.548;9.926;2023-04-24T00:05:56;14.38;;;10.02;;
17953;SDS011;9102;53.548;9.926;2023-04-24T00:08:24;12.52;;;9.35;;
17953;SDS011;9102;53.548;9.926;2023-04-24T00:10:50;9.90;;;7.97;;
17953;SDS011;9102;53.548;9.926;2023-04-24T00:13:18;11.75;;;8.02;;
17953;SDS011;9102;53.548;9.926;2023-04-24T00:15:45;10.43;;;8.75;;
17953;SDS011;9102;53.548;9.926;2023-04-24T00:18:12;11.13;;;8.25;;
17953;SDS011;9102;53.548;9.926;2023-04-24T00:20:39;14.48;;;7.72;;
17953;SDS011;9102;53.548;9.926;2023-04-24T00:23:07;13.48;;;8.30;;
17953;SDS011;9102;53.548;9.926;2023-04-24T00:25:34;9.40;;;7.80;;
17953;SDS011;9102;53.548;9.926;2023-04-24T00:28:01;8.82;;;7.15;;
17953;SDS011;9102;53.548;9.926;2023-04-24T00:30:28;9.45;;;7.53;;
17953;SDS011;9102;53.548;9.926;2023-04-24T00:32:55;9.90;;;7.07;;
17953;SDS011;9102;53.548;9.926;2023-04-24T00:35:22;9.88;;;7.30;;
17953;SDS011;9102;53.548;9.926;2023-04-24T00:37:48;8.48;;;6.88;;
17953;SDS011;9102;53.548;9.926;2023-04-24T00:40:17;10.80;;;7.97;;
17953;SDS011;9102;53.548;9.926;2023-04-24T00:42:44;10.48;;;8.23;;
17953;SDS011;9102;53.548;9.926;2023-04-24T00:45:11;11.13;;;9.05;;
17953;SDS011;9102;53.548;9.926;2023-04-24T00:47:39;11.73;;;8.52;;
17953;SDS011;9102;53.548;9.926;2023-04-24T00:50:07;13.85;;;8.68;;
17953;SDS011;9102;53.548;9.926;2023-04-24T00:52:36;10.93;;;8.18;;
17953;SDS011;9102;53.548;9.926;2023-04-24T00:55:05;12.95;;;8.63;;
17953;SDS011;9102;53.548;9.926;2023-04-24T00:57:34;11.95;;;8.68;;
17953;SDS011;9102;53.548;9.926;2023-04-24T01:00:01;10.80;;;8.40;;
17953;SDS011;9102;53.548;9.926;2023-04-24T01:02:30;9.45;;;7.80;;
17953;SDS011;9102;53.548;9.926;2023-04-24T01:04:59;12.30;;;8.30;;
17953;SDS011;9102;53.548;9.926;2023-04-24T01:07:26;11.27;;;8.25;;
17953;SDS011;9102;53.548;9.926;2023-04-24T01:09:54;9.82;;;7.32;;
17953;SDS011;9102;53.548;9.926;2023-04-24T01:12:21;8.95;;;6.97;;
17953;SDS011;9102;53.548;9.926;2023-04-24T01:14:49;10.43;;;6.70;;
17953;SDS011;9102;53.548;9.926;2023-04-24T01:17:17;7.25;;;6.05;;
17953;SDS011;9102;53.548;9.926;2023-04-24T01:19:44;8.07;;;6.40;;
17953;SDS011;9102;53.548;9.926;2023-04-24T01:22:12;7.45;;;6.25;;
17953;SDS011;9102;53.548;9.926;2023-04-24T01:24:40;7.70;;;5.93;;
17953;SDS011;9102;53.548;9.926;2023-04-24T01:27:07;8.90;;;6.70;;
17953;SDS011;9102;53.548;9.926;2023-04-24T01:29:35;11.23;;;5.88;;
17953;SDS011;9102;53.548;9.926;2023-04-24T01:32:02;6.15;;;5.43;;
17953;SDS011;9102;53.548;9.926;2023-04-24T01:34:29;7.32;;;5.65;;
17953;SDS011;9102;53.548;9.926;2023-04-24T01:36:57;7.25;;;5.30;;
17953;SDS011;9102;53.548;9.926;2023-04-24T01:39:26;8.02;;;5.30;;
17953;SDS011;9102;53.548;9.926;2023-04-24T01:41:53;10.02;;;4.97;;
17953;SDS011;9102;53.548;9.926;2023-04-24T01:44:20;6.80;;;4.60;;
17953;SDS011;9102;53.548;9.926;2023-04-24T01:46:47;5.60;;;4.35;;
17953;SDS011;9102;53.548;9.926;2023-04-24T01:49:14;8.75;;;4.38;;
17953;SDS011;9102;53.548;9.926;2023-04-24T01:51:41;7.63;;;4.05;;
17953;SDS011;9102;53.548;9.926;2023-04-24T01:54:08;6.13;;;3.40;;
17953;SDS011;9102;53.548;9.926;2023-04-24T01:56:36;4.75;;;3.50;;
17953;SDS011;9102;53.548;9.926;2023-04-24T01:59:07;5.28;;;3.47;;
17953;SDS011;9102;53.548;9.926;2023-04-24T02:01:36;4.25;;;2.97;;
17953;SDS011;9102;53.548;9.926;2023-04-24T02:04:04;3.33;;;2.83;;
17953;SDS011;9102;53.548;9.926;2023-04-24T02:06:32;4.38;;;3.10;;
17953;SDS011;9102;53.548;9.926;2023-04-24T02:08:59;5.03;;;2.95;;
17953;SDS011;9102;53.548;9.926;2023-04-24T02:11:26;2.92;;;2.47;;
17953;SDS011;9102;53.548;9.926;2023-04-24T02:13:54;4.70;;;2.40;;
17953;SDS011;9102;53.548;9.926;2023-04-24T02:16:21;2.90;;;2.30;;
17953;SDS011;9102;53.548;9.926;2023-04-24T02:18:47;3.28;;;2.65;;
17953;SDS011;9102;53.548;9.926;2023-04-24T02:21:14;6.57;;;4.63;;
17953;SDS011;9102;53.548;9.926;2023-04-24T02:23:41;4.50;;;3.70;;
17953;SDS011;9102;53.548;9.926;2023-04-24T02:26:08;4.90;;;2.75;;
17953;SDS011;9102;53.548;9.926;2023-04-24T02:28:35;2.72;;;1.83;;
17953;SDS011;9102;53.548;9.926;2023-04-24T02:31:03;3.10;;;2.22;;
17953;SDS011;9102;53.548;9.926;2023-04-24T02:33:31;4.03;;;2.42;;
17953;SDS011;9102;53.548;9.926;2023-04-24T02:35:58;3.10;;;2.50;;
17953;SDS011;9102;53.548;9.926;2023-04-24T02:38:25;3.63;;;2.85;;
17953;SDS011;9102;53.548;9.926;2023-04-24T02:40:52;3.53;;;2.88;;
17953;SDS011;9102;53.548;9.926;2023-04-24T02:43:18;4.97;;;2.90;;
17953;SDS011;9102;53.548;9.926;2023-04-24T02:45:45;4.88;;;3.17;;
17953;SDS011;9102;53.548;9.926;2023-04-24T02:48:13;3.97;;;2.50;;
17953;SDS011;9102;53.548;9.926;2023-04-24T02:50:40;3.38;;;2.95;;
17953;SDS011;9102;53.548;9.926;2023-04-24T02:53:07;3.47;;;2.72;;
17953;SDS011;9102;53.548;9.926;2023-04-24T02:55:34;3.20;;;2.75;;
17953;SDS011;9102;53.548;9.926;2023-04-24T02:58:01;4.32;;;2.80;;
17953;SDS011;9102;53.548;9.926;2023-04-24T03:00:27;3.58;;;2.45;;
17953;SDS011;9102;53.548;9.926;2023-04-24T03:02:54;5.15;;;2.78;;
17953;SDS011;9102;53.548;9.926;2023-04-24T03:05:23;3.42;;;2.60;;
17953;SDS011;9102;53.548;9.926;2023-04-24T03:07:50;5.38;;;2.65;;
17953;SDS011;9102;53.548;9.926;2023-04-24T03:10:17;2.60;;;2.38;;
17953;SDS011;9102;53.548;9.926;2023-04-24T03:12:44;2.60;;;2.40;;
17953;SDS011;9102;53.548;9.926;2023-04-24T03:15:11;3.72;;;2.60;;
17953;SDS011;9102;53.548;9.926;2023-04-24T03:17:38;3.28;;;2.20;;
17953;SDS011;9102;53.548;9.926;2023-04-24T03:20:05;6.13;;;2.75;;
17953;SDS011;9102;53.548;9.926;2023-04-24T03:22:35;3.65;;;2.30;;
17953;SDS011;9102;53.548;9.926;2023-04-24T03:25:02;5.07;;;2.50;;
17953;SDS011;9102;53.548;9.926;2023-04-24T03:27:30;3.13;;;2.05;;
17953;SDS011;9102;53.548;9.926;2023-04-24T03:29:57;2.20;;;2.00;;
17953;SDS011;9102;53.548;9.926;2023-04-24T03:32:23;5.03;;;1.80;;
17953;SDS011;9102;53.548;9.926;2023-04-24T03:34:50;2.42;;;2.05;;
17953;SDS011;9102;53.548;9.926;2023-04-24T03:37:17;3.70;;;2.00;;
17953;SDS011;9102;53.548;9.926;2023-04-24T03:39:45;7.80;;;4.30;;
17953;SDS011;9102;53.548;9.926;2023-04-24T03:42:12;4.25;;;2.22;;
17953;SDS011;9102;53.548;9.926;2023-04-24T03:44:39;3.25;;;1.60;;
17953;SDS011;9102;53.548;9.926;2023-04-24T03:47:05;2.78;;;1.80;;
17953;SDS011;9102;53.548;9.926;2023-04-24T03:49:32;3.80;;;2.00;;
17953;SDS011;9102;53.548;9.926;2023-04-24T03:51:59;2.40;;;1.90;;
17953;SDS011;9102;53.548;9.926;2023-04-24T03:54:26;2.83;;;1.98;;
17953;SDS011;9102;53.548;9.926;2023-04-24T03:56:54;5.07;;;2.33;;
17953;SDS011;9102;53.548;9.926;2023-04-24T03:59:21;3.75;;;2.10;;
17953;SDS011;9102;53.548;9.926;2023-04-24T04:01:48;4.57;;;2.10;;
17953;SDS011;9102;53.548;9.926;2023-04-24T04:04:15;3.72;;;2.13;;
17953;SDS011;9102;53.548;9.926;2023-04-24T04:06:42;3.03;;;1.85;;
17953;SDS011;9102;53.548;9.926;2023-04-24T04:09:09;4.00;;;1.52;;
17953;SDS011;9102;53.548;9.926;2023-04-24T04:11:36;2.47;;;1.67;;
17953;SDS011;9102;53.548;9.926;2023-04-24T04:14:04;2.25;;;1.70;;
17953;SDS011;9102;53.548;9.926;2023-04-24T04:16:31;3.00;;;1.60;;
17953;SDS011;9102;53.548;9.926;2023-04-24T04:18:58;4.30;;;1.40;;
17953;SDS011;9102;53.548;9.926;2023-04-24T04:21:25;3.75;;;1.80;;
17953;SDS011;9102;53.548;9.926;2023-04-24T04:23:53;2.33;;;1.33;;
17953;SDS011;9102;53.548;9.926;2023-04-24T04:26:19;1.63;;;1.40;;
17953;SDS011;9102;53.548;9.926;2023-04-24T04:28:50;6.13;;;1.50;;
17953;SDS011;9102;53.548;9.926;2023-04-24T04:31:18;5.45;;;1.65;;
17953;SDS011;9102;53.548;9.926;2023-04-24T04:33:45;1.63;;;1.40;;
17953;SDS011;9102;53.548;9.926;2023-04-24T04:36:13;3.72;;;1.42;;
17953;SDS011;9102;53.548;9.926;2023-04-24T04:38:42;3.30;;;1.33;;
17953;SDS011;9102;53.548;9.926;2023-04-24T04:41:09;3.80;;;1.60;;
17953;SDS011;9102;53.548;9.926;2023-04-24T04:43:37;2.60;;;2.03;;
17953;SDS011;9102;53.548;9.926;2023-04-24T04:46:05;2.38;;;1.50;;
17953;SDS011;9102;53.548;9.926;2023-04-24T04:48:34;1.73;;;1.42;;
17953;SDS011;9102;53.548;9.926;2023-04-24T04:51:01;1.60;;;1.10;;
17953;SDS011;9102;53.548;9.926;2023-04-24T04:53:28;2.95;;;1.40;;
17953;SDS011;9102;53.548;9.926;2023-04-24T04:55:55;2.08;;;1.25;;
17953;SDS011;9102;53.548;9.926;2023-04-24T04:58:22;3.55;;;1.08;;
17953;SDS011;9102;53.548;9.926;2023-04-24T05:00:49;1.48;;;1.25;;
17953;SDS011;9102;53.548;9.926;2023-04-24T05:03:17;2.42;;;1.23;;
17953;SDS011;9102;53.548;9.926;2023-04-24T05:05:45;1.80;;;1.10;;
17953;SDS011;9102;53.548;9.926;2023-04-24T05:08:12;1.77;;;1.30;;
17953;SDS011;9102;53.548;9.926;2023-04-24T05:10:39;2.05;;;1.38;;
17953;SDS011;9102;53.548;9.926;2023-04-24T05:13:05;1.63;;;1.30;;
17953;SDS011;9102;53.548;9.926;2023-04-24T05:15:32;3.63;;;1.48;;
17953;SDS011;9102;53.548;9.926;2023-04-24T05:17:59;2.25;;;1.25;;
17953;SDS011;9102;53.548;9.926;2023-04-24T05:20:26;3.65;;;1.00;;
17953;SDS011;9102;53.548;9.926;2023-04-24T05:22:54;3.13;;;1.15;;
17953;SDS011;9102;53.548;9.926;2023-04-24T05:25:21;2.15;;;1.23;;
17953;SDS011;9102;53.548;9.926;2023-04-24T05:27:47;2.22;;;1.27;;
17953;SDS011;9102;53.548;9.926;2023-04-24T05:30:14;2.38;;;1.30;;
17953;SDS011;9102;53.548;9.926;2023-04-24T05:32:41;2.63;;;1.73;;
17953;SDS011;9102;53.548;9.926;2023-04-24T05:35:09;2.85;;;1.50;;
17953;SDS011;9102;53.548;9.926;2023-04-24T05:37:36;4.93;;;1.60;;
17953;SDS011;9102;53.548;9.926;2023-04-24T05:40:05;3.97;;;1.80;;
17953;SDS011;9102;53.548;9.926;2023-04-24T05:42:32;2.90;;;1.30;;
17953;SDS011;9102;53.548;9.926;2023-04-24T05:45:00;2.55;;;1.40;;
17953;SDS011;9102;53.548;9.926;2023-04-24T05:47:27;1.20;;;1.10;;
17953;SDS011;9102;53.548;9.926;2023-04-24T05:49:53;4.53;;;1.50;;
17953;SDS011;9102;53.548;9.926;2023-04-24T05:52:20;2.15;;;1.35;;
17953;SDS011;9102;53.548;9.926;2023-04-24T05:54:47;1.88;;;1.35;;
17953;SDS011;9102;53.548;9.926;2023-04-24T05:57:15;5.85;;;1.40;;
17953;SDS011;9102;53.548;9.926;2023-04-24T05:59:42;2.50;;;1.70;;
17953;SDS011;9102;53.548;9.926;2023-04-24T06:02:09;2.10;;;1.40;;
17953;SDS011;9102;53.548;9.926;2023-04-24T06:04:36;3.10;;;1.80;;
17953;SDS011;9102;53.548;9.926;2023-04-24T06:07:02;4.07;;;1.80;;
17953;SDS011;9102;53.548;9.926;2023-04-24T06:09:29;6.32;;;2.10;;
17953;SDS011;9102;53.548;9.926;2023-04-24T06:11:56;5.35;;;2.22;;
17953;SDS011;9102;53.548;9.926;2023-04-24T06:14:25;9.07;;;3.85;;
17953;SDS011;9102;53.548;9.926;2023-04-24T06:16:51;11.57;;;3.78;;
17953;SDS011;9102;53.548;9.926;2023-04-24T06:19:18;8.15;;;3.25;;
17953;SDS011;9102;53.548;9.926;2023-04-24T06:21:45;6.47;;;2.53;;
17953;SDS011;9102;53.548;9.926;2023-04-24T06:24:13;7.45;;;3.00;;
17953;SDS011;9102;53.548;9.926;2023-04-24T06:26:41;11.52;;;5.65;;
17953;SDS011;9102;53.548;9.926;2023-04-24T06:29:08;10.50;;;5.25;;
17953;SDS011;9102;53.548;9.926;2023-04-24T06:31:36;9.77;;;3.28;;
17953;SDS011;9102;53.548;9.926;2023-04-24T06:34:03;11.55;;;4.93;;
17953;SDS011;9102;53.548;9.926;2023-04-24T06:36:30;10.02;;;4.05;;
17953;SDS011;9102;53.548;9.926;2023-04-24T06:38:59;13.13;;;4.57;;
17953;SDS011;9102;53.548;9.926;2023-04-24T06:41:26;10.55;;;3.42;;
17953;SDS011;9102;53.548;9.926;2023-04-24T06:43:53;6.97;;;2.58;;
17953;SDS011;9102;53.548;9.926;2023-04-24T06:46:21;7.65;;;2.53;;
17953;SDS011;9102;53.548;9.926;2023-04-24T06:48:52;6.88;;;2.40;;
17953;SDS011;9102;53.548;9.926;2023-04-24T06:51:21;3.28;;;2.13;;
17953;SDS011;9102;53.548;9.926;2023-04-24T06:53:48;3.60;;;2.05;;
17953;SDS011;9102;53.548;9.926;2023-04-24T06:56:15;4.82;;;2.00;;
17953;SDS011;9102;53.548;9.926;2023-04-24T06:58:43;5.72;;;2.20;;
17953;SDS011;9102;53.548;9.926;2023-04-24T07:01:10;4.38;;;2.10;;
17953;SDS011;9102;53.548;9.926;2023-04-24T07:03:37;3.28;;;2.13;;
17953;SDS011;9102;53.548;9.926;2023-04-24T07:06:05;3.70;;;2.10;;
17953;SDS011;9102;53.548;9.926;2023-04-24T07:08:32;3.95;;;2.75;;
17953;SDS011;9102;53.548;9.926;2023-04-24T07:10:59;4.20;;;2.50;;
17953;SDS011;9102;53.548;9.926;2023-04-24T07:13:26;4.88;;;2.42;;
17953;SDS011;9102;53.548;9.926;2023-04-24T07:15:53;3.17;;;2.45;;
17953;SDS011;9102;53.548;9.926;2023-04-24T07:18:21;2.80;;;2.47;;
17953;SDS011;9102;53.548;9.926;2023-04-24T07:20:48;4.13;;;2.17;;
17953;SDS011;9102;53.548;9.926;2023-04-24T07:23:17;4.30;;;2.40;;
17953;SDS011;9102;53.548;9.926;2023-04-24T07:25:44;3.92;;;2.70;;
17953;SDS011;9102;53.548;9.926;2023-04-24T07:28:11;3.53;;;2.85;;
17953;SDS011;9102;53.548;9.926;2023-04-24T07:30:39;3.97;;;2.97;;
17953;SDS011;9102;53.548;9.926;2023-04-24T07:33:05;5.18;;;2.42;;
17953;SDS011;9102;53.548;9.926;2023-04-24T07:35:32;4.50;;;3.25;;
17953;SDS011;9102;53.548;9.926;2023-04-24T07:38:00;4.85;;;3.13;;
17953;SDS011;9102;53.548;9.926;2023-04-24T07:40:28;3.00;;;2.70;;
17953;SDS011;9102;53.548;9.926;2023-04-24T07:42:55;4.10;;;2.90;;
17953;SDS011;9102;53.548;9.926;2023-04-24T07:45:22;7.07;;;3.45;;
17953;SDS011;9102;53.548;9.926;2023-04-24T07:47:51;4.43;;;3.67;;
17953;SDS011;9102;53.548;9.926;2023-04-24T07:50:18;5.20;;;3.95;;
17953;SDS011;9102;53.548;9.926;2023-04-24T07:52:45;4.65;;;3.63;;
17953;SDS011;9102;53.548;9.926;2023-04-24T07:55:12;4.68;;;3.83;;
17953;SDS011;9102;53.548;9.926;2023-04-24T07:57:40;4.35;;;3.60;;
17953;SDS011;9102;53.548;9.926;2023-04-24T08:00:07;12.15;;;4.75;;
17953;SDS011;9102;53.548;9.926;2023-04-24T08:02:35;5.85;;;3.63;;
17953;SDS011;9102;53.548;9.926;2023-04-24T08:05:02;4.93;;;3.47;;
17953;SDS011;9102;53.548;9.926;2023-04-24T08:07:29;4.82;;;3.53;;
17953;SDS011;9102;53.548;9.926;2023-04-24T08:09:56;4.07;;;3.67;;
17953;SDS011;9102;53.548;9.926;2023-04-24T08:12:24;5.07;;;3.78;;
17953;SDS011;9102;53.548;9.926;2023-04-24T08:14:52;7.35;;;4.28;;
17953;SDS011;9102;53.548;9.926;2023-04-24T08:17:19;6.78;;;4.70;;
17953;SDS011;9102;53.548;9.926;2023-04-24T08:19:46;5.53;;;4.20;;
17953;SDS011;9102;53.548;9.926;2023-04-24T08:22:13;6.07;;;4.03;;
17953;SDS011;9102;53.548;9.926;2023-04-24T08:24:40;5.28;;;4.40;;
17953;SDS011;9102;53.548;9.926;2023-04-24T08:27:07;5.95;;;4.45;;
17953;SDS011;9102;53.548;9.926;2023-04-24T08:29:35;8.45;;;4.95;;
17953;SDS011;9102;53.548;9.926;2023-04-24T08:32:03;6.03;;;4.35;;
17953;SDS011;9102;53.548;9.926;2023-04-24T08:34:30;6.20;;;4.07;;
17953;SDS011;9102;53.548;9.926;2023-04-24T08:36:57;6.43;;;4.93;;
17953;SDS011;9102;53.548;9.926;2023-04-24T08:39:24;6.63;;;4.47;;
17953;SDS011;9102;53.548;9.926;2023-04-24T08:41:51;6.60;;;4.53;;
17953;SDS011;9102;53.548;9.926;2023-04-24T08:44:19;10.40;;;5.32;;
17953;SDS011;9102;53.548;9.926;2023-04-24T08:46:46;9.00;;;4.85;;
17953;SDS011;9102;53.548;9.926;2023-04-24T08:49:17;6.47;;;4.75;;
17953;SDS011;9102;53.548;9.926;2023-04-24T08:51:45;6.55;;;4.93;;
17953;SDS011;9102;53.548;9.926;2023-04-24T08:54:13;6.60;;;4.78;;
17953;SDS011;9102;53.548;9.926;2023-04-24T08:56:40;6.25;;;4.88;;
17953;SDS011;9102;53.548;9.926;2023-04-24T08:59:10;7.68;;;5.15;;
17953;SDS011;9102;53.548;9.926;2023-04-24T09:01:37;6.75;;;5.03;;
17953;SDS011;9102;53.548;9.926;2023-04-24T09:04:07;6.38;;;5.68;;
17953;SDS011;9102;53.548;9.926;2023-04-24T09:06:37;6.72;;;5.18;;
17953;SDS011;9102;53.548;9.926;2023-04-24T09:09:04;6.93;;;4.85;;
17953;SDS011;9102;53.548;9.926;2023-04-24T09:11:31;10.32;;;5.50;;
17953;SDS011;9102;53.548;9.926;2023-04-24T09:13:58;6.55;;;4.93;;
17953;SDS011;9102;53.548;9.926;2023-04-24T09:16:26;6.97;;;5.38;;
17953;SDS011;9102;53.548;9.926;2023-04-24T09:18:55;7.32;;;5.10;;
17953;SDS011;9102;53.548;9.926;2023-04-24T09:21:22;7.70;;;4.93;;
17953;SDS011;9102;53.548;9.926;2023-04-24T09:23:58;8.80;;;5.38;;
17953;SDS011;9102;53.548;9.926;2023-04-24T09:26:28;7.18;;;4.75;;
17953;SDS011;9102;53.548;9.926;2023-04-24T09:28:58;6.85;;;4.32;;
17953;SDS011;9102;53.548;9.926;2023-04-24T09:31:26;5.63;;;4.60;;
17953;SDS011;9102;53.548;9.926;2023-04-24T09:33:54;5.93;;;4.60;;
17953;SDS011;9102;53.548;9.926;2023-04-24T09:36:26;8.55;;;5.40;;
17953;SDS011;9102;53.548;9.926;2023-04-24T09:38:58;6.85;;;5.60;;
17953;SDS011;9102;53.548;9.926;2023-04-24T09:41:26;7.90;;;5.63;;
17953;SDS011;9102;53.548;9.926;2023-04-24T09:43:55;7.78;;;5.53;;
17953;SDS011;9102;53.548;9.926;2023-04-24T09:46:29;8.30;;;5.93;;
17953;SDS011;9102;53.548;9.926;2023-04-24T09:48:57;9.60;;;6.60;;
17953;SDS011;9102;53.548;9.926;2023-04-24T09:51:33;12.93;;;6.80;;
17953;SDS011;9102;53.548;9.926;2023-04-24T09:54:03;11.68;;;6.50;;
17953;SDS011;9102;53.548;9.926;2023-04-24T09:56:32;13.20;;;7.20;;
17953;SDS011;9102;53.548;9.926;2023-04-24T09:59:04;9.30;;;6.25;;
17953;SDS011;9102;53.548;9.926;2023-04-24T10:01:31;7.63;;;5.95;;
17953;SDS011;9102;53.548;9.926;2023-04-24T10:03:59;7.78;;;6.15;;
17953;SDS011;9102;53.548;9.926;2023-04-24T10:06:29;12.95;;;7.47;;
17953;SDS011;9102;53.548;9.926;2023-04-24T10:08:59;10.85;;;6.35;;
17953;SDS011;9102;53.548;9.926;2023-04-24T10:11:27;13.88;;;7.60;;
17953;SDS011;9102;53.548;9.926;2023-04-24T10:13:54;10.90;;;6.70;;
17953;SDS011;9102;53.548;9.926;2023-04-24T10:16:22;10.63;;;7.55;;
17953;SDS011;9102;53.548;9.926;2023-04-24T10:18:49;14.90;;;8.02;;
17953;SDS011;9102;53.548;9.926;2023-04-24T10:21:17;11.38;;;7.80;;
17953;SDS011;9102;53.548;9.926;2023-04-24T10:23:44;12.90;;;7.55;;
17953;SDS011;9102;53.548;9.926;2023-04-24T10:26:12;11.57;;;8.20;;
17953;SDS011;9102;53.548;9.926;2023-04-24T10:28:45;11.88;;;7.57;;
17953;SDS011;9102;53.548;9.926;2023-04-24T10:31:12;15.63;;;8.48;;
17953;SDS011;9102;53.548;9.926;2023-04-24T10:33:39;16.27;;;9.38;;
17953;SDS011;9102;53.548;9.926;2023-04-24T10:36:07;15.32;;;9.52;;
17953;SDS011;9102;53.548;9.926;2023-04-24T10:38:35;14.57;;;8.93;;
17953;SDS011;9102;53.548;9.926;2023-04-24T10:41:08;12.18;;;8.50;;
17953;SDS011;9102;53.548;9.926;2023-04-24T10:43:41;12.77;;;8.82;;
17953;SDS011;9102;53.548;9.926;2023-04-24T10:46:10;15.20;;;8.75;;
17953;SDS011;9102;53.548;9.926;2023-04-24T10:48:41;15.93;;;9.73;;
17953;SDS011;9102;53.548;9.926;2023-04-24T10:51:11;19.48;;;10.88;;
17953;SDS011;9102;53.548;9.926;2023-04-24T10:53:39;14.35;;;9.18;;
17953;SDS011;9102;53.548;9.926;2023-04-24T10:56:06;12.15;;;8.43;;
17953;SDS011;9102;53.548;9.926;2023-04-24T10:58:38;17.55;;;9.68;;
17953;SDS011;9102;53.548;9.926;2023-04-24T11:01:13;20.77;;;11.02;;
17953;SDS011;9102;53.548;9.926;2023-04-24T11:03:50;21.75;;;11.57;;
17953;SDS011;9102;53.548;9.926;2023-04-24T11:06:20;14.48;;;8.90;;
17953;SDS011;9102;53.548;9.926;2023-04-24T11:08:58;17.95;;;9.73;;
17953;SDS011;9102;53.548;9.926;2023-04-24T11:11:30;16.48;;;10.15;;
17953;SDS011;9102;53.548;9.926;2023-04-24T11:14:07;14.10;;;9.07;;
17953;SDS011;9102;53.548;9.926;2023-04-24T11:16:37;14.50;;;9.10;;
17953;SDS011;9102;53.548;9.926;2023-04-24T11:19:09;13.55;;;8.60;;
17953;SDS011;9102;53.548;9.926;2023-04-24T11:21:46;12.43;;;7.90;;
17953;SDS011;9102;53.548;9.926;2023-04-24T11:24:22;9.55;;;7.47;;
17953;SDS011;9102;53.548;9.926;2023-04-24T11:27:04;11.88;;;7.95;;
17953;SDS011;9102;53.548;9.926;2023-04-24T11:29:39;12.07;;;7.88;;
17953;SDS011;9102;53.548;9.926;2023-04-24T11:32:16;10.98;;;7.97;;
17953;SDS011;9102;53.548;9.926;2023-04-24T11:34:45;12.75;;;8.00;;
17953;SDS011;9102;53.548;9.926;2023-04-24T11:37:13;11.88;;;8.25;;
17953;SDS011;9102;53.548;9.926;2023-04-24T11:39:40;10.60;;;8.00;;
17953;SDS011;9102;53.548;9.926;2023-04-24T11:42:07;11.40;;;7.28;;
17953;SDS011;9102;53.548;9.926;2023-04-24T11:44:34;12.13;;;7.82;;
17953;SDS011;9102;53.548;9.926;2023-04-24T11:47:02;14.90;;;8.40;;
17953;SDS011;9102;53.548;9.926;2023-04-24T11:49:30;11.68;;;7.90;;
17953;SDS011;9102;53.548;9.926;2023-04-24T11:51:57;15.63;;;7.55;;
17953;SDS011;9102;53.548;9.926;2023-04-24T11:54:25;11.18;;;7.07;;
17953;SDS011;9102;53.548;9.926;2023-04-24T11:56:52;10.35;;;6.65;;
17953;SDS011;9102;53.548;9.926;2023-04-24T11:59:19;9.23;;;6.13;;
17953;SDS011;9102;53.548;9.926;2023-04-24T12:01:46;9.70;;;5.75;;
17953;SDS011;9102;53.548;9.926;2023-04-24T12:04:15;8.98;;;5.95;;
17953;SDS011;9102;53.548;9.926;2023-04-24T12:09:43;9.60;;;6.43;;
17953;SDS011;9102;53.548;9.926;2023-04-24T12:12:12;9.25;;;6.07;;
17953;SDS011;9102;53.548;9.926;2023-04-24T12:14:43;10.48;;;5.55;;
17953;SDS011;9102;53.548;9.926;2023-04-24T12:17:10;6.55;;;5.35;;
17953;SDS011;9102;53.548;9.926;2023-04-24T12:19:37;10.13;;;6.00;;
17953;SDS011;9102;53.548;9.926;2023-04-24T12:22:10;8.80;;;5.80;;
17953;SDS011;9102;53.548;9.926;2023-04-24T12:27:25;8.95;;;6.05;;
17953;SDS011;9102;53.548;9.926;2023-04-24T12:29:53;9.85;;;6.22;;
17953;SDS011;9102;53.548;9.926;2023-04-24T12:32:22;8.05;;;6.20;;
17953;SDS011;9102;53.548;9.926;2023-04-24T12:34:50;7.32;;;5.90;;
17953;SDS011;9102;53.548;9.926;2023-04-24T12:37:17;9.32;;;6.07;;
17953;SDS011;9102;53.548;9.926;2023-04-24T12:39:44;7.53;;;5.47;;
17953;SDS011;9102;53.548;9.926;2023-04-24T12:42:26;9.55;;;6.57;;
17953;SDS011;9102;53.548;9.926;2023-04-24T12:44:55;8.02;;;5.90;;
17953;SDS011;9102;53.548;9.926;2023-04-24T12:47:24;9.55;;;6.47;;
17953;SDS011;9102;53.548;9.926;2023-04-24T12:49:51;7.25;;;6.03;;
17953;SDS011;9102;53.548;9.926;2023-04-24T12:52:20;8.48;;;6.72;;
17953;SDS011;9102;53.548;9.926;2023-04-24T12:54:47;7.57;;;5.82;;
17953;SDS011;9102;53.548;9.926;2023-04-24T12:57:15;8.05;;;6.32;;
17953;SDS011;9102;53.548;9.926;2023-04-24T12:59:42;8.95;;;6.25;;
17953;SDS011;9102;53.548;9.926;2023-04-24T13:02:09;6.95;;;5.70;;
17953;SDS011;9102;53.548;9.926;2023-04-24T13:04:37;7.10;;;5.70;;
17953;SDS011;9102;53.548;9.926;2023-04-24T13:07:04;8.57;;;5.88;;
17953;SDS011;9102;53.548;9.926;2023-04-24T13:09:31;8.77;;;5.82;;
17953;SDS011;9102;53.548;9.926;2023-04-24T13:12:00;8.73;;;5.50;;
17953;SDS011;9102;53.548;9.926;2023-04-24T13:14:28;10.15;;;5.13;;
17953;SDS011;9102;53.548;9.926;2023-04-24T13:16:55;7.13;;;4.90;;
17953;SDS011;9102;53.548;9.926;2023-04-24T13:19:23;7.40;;;5.15;;
17953;SDS011;9102;53.548;9.926;2023-04-24T13:21:51;6.50;;;5.38;;
17953;SDS011;9102;53.548;9.926;2023-04-24T13:24:18;6.53;;;4.50;;
17953;SDS011;9102;53.548;9.926;2023-04-24T13:26:45;7.07;;;5.00;;
17953;SDS011;9102;53.548;9.926;2023-04-24T13:29:12;5.38;;;4.50;;
17953;SDS011;9102;53.548;9.926;2023-04-24T13:31:40;5.90;;;4.65;;
17953;SDS011;9102;53.548;9.926;2023-04-24T13:34:07;7.80;;;4.97;;
17953;SDS011;9102;53.548;9.926;2023-04-24T13:36:33;7.95;;;5.05;;
17953;SDS011;9102;53.548;9.926;2023-04-24T13:39:01;5.72;;;4.88;;
17953;SDS011;9102;53.548;9.926;2023-04-24T13:41:29;8.20;;;5.63;;
17953;SDS011;9102;53.548;9.926;2023-04-24T13:43:59;7.10;;;5.25;;
17953;SDS011;9102;53.548;9.926;2023-04-24T13:46:26;6.35;;;5.07;;
17953;SDS011;9102;53.548;9.926;2023-04-24T13:49:04;7.32;;;5.32;;
17953;SDS011;9102;53.548;9.926;2023-04-24T13:51:32;5.00;;;4.47;;
17953;SDS011;9102;53.548;9.926;2023-04-24T13:53:59;6.25;;;5.13;;
17953;SDS011;9102;53.548;9.926;2023-04-24T13:56:26;7.07;;;4.85;;
17953;SDS011;9102;53.548;9.926;2023-04-24T13:58:56;7.95;;;4.88;;
17953;SDS011;9102;53.548;9.926;2023-04-24T14:01:25;6.20;;;4.72;;
17953;SDS011;9102;53.548;9.926;2023-04-24T14:03:52;7.13;;;4.85;;
17953;SDS011;9102;53.548;9.926;2023-04-24T14:06:24;5.47;;;4.68;;
17953;SDS011;9102;53.548;9.926;2023-04-24T14:09:01;4.55;;;4.13;;
17953;SDS011;9102;53.548;9.926;2023-04-24T14:11:33;4.78;;;4.28;;
17953;SDS011;9102;53.548;9.926;2023-04-24T14:14:10;5.00;;;4.25;;
17953;SDS011;9102;53.548;9.926;2023-04-24T14:16:40;6.47;;;4.68;;
17953;SDS011;9102;53.548;9.926;2023-04-24T14:19:10;9.18;;;5.22;;
17953;SDS011;9102;53.548;9.926;2023-04-24T14:21:38;6.72;;;5.15;;
17953;SDS011;9102;53.548;9.926;2023-04-24T14:24:07;8.65;;;5.25;;
17953;SDS011;9102;53.548;9.926;2023-04-24T14:26:40;5.70;;;5.10;;
17953;SDS011;9102;53.548;9.926;2023-04-24T14:29:10;6.65;;;5.70;;
17953;SDS011;9102;53.548;9.926;2023-04-24T14:31:41;6.30;;;5.63;;
17953;SDS011;9102;53.548;9.926;2023-04-24T14:34:08;8.38;;;6.00;;
17953;SDS011;9102;53.548;9.926;2023-04-24T14:36:39;7.75;;;6.28;;
17953;SDS011;9102;53.548;9.926;2023-04-24T14:39:12;12.95;;;7.82;;
17953;SDS011;9102;53.548;9.926;2023-04-24T14:41:39;8.48;;;7.20;;
17953;SDS011;9102;53.548;9.926;2023-04-24T14:44:06;11.98;;;7.65;;
17953;SDS011;9102;53.548;9.926;2023-04-24T14:46:33;8.57;;;7.30;;
17953;SDS011;9102;53.548;9.926;2023-04-24T14:49:05;11.45;;;8.50;;
17953;SDS011;9102;53.548;9.926;2023-04-24T14:51:36;9.50;;;7.88;;
17953;SDS011;9102;53.548;9.926;2023-04-24T14:54:07;12.00;;;9.13;;
17953;SDS011;9102;53.548;9.926;2023-04-24T14:56:34;11.57;;;9.63;;
17953;SDS011;9102;53.548;9.926;2023-04-24T14:59:05;11.20;;;9.52;;
17953;SDS011;9102;53.548;9.926;2023-04-24T15:01:36;12.15;;;8.90;;
17953;SDS011;9102;53.548;9.926;2023-04-24T15:04:02;12.70;;;9.63;;
17953;SDS011;9102;53.548;9.926;2023-04-24T15:06:32;12.98;;;10.52;;
17953;SDS011;9102;53.548;9.926;2023-04-24T15:08:59;15.40;;;10.68;;